sensor_id;sensor_type;location;lat;lon;timestamp;pressure;altitude;pressure_sealevel;temperature;humidity
31483;BME280;18103;52.246;8.052;2023-02-22T00:00:22;100450.56;;;8.31;90.80
31483;BME280;18103;52.246;8.052;2023-02-22T00:02:55;100456.44;;;8.21;91.25
31483;BME280;18103;52.246;8.052;2023-02-22T00:05:27;100442.16;;;8.26;91.35
31483;BME280;18103;52.246;8.052;2023-02-22T00:07:53;100446.56;;;8.25;91.33
31483;BME280;18103;52.246;8.052;2023-02-22T00:10:22;100438.75;;;8.23;91.15
31483;BME280;18103;52.246;8.052;2023-02-22T00:12:49;100438.88;;;8.22;91.27
31483;BME280;18103;52.246;8.052;2023-02-22T00:15:18;100437.00;;;8.37;90.76
31483;BME280;18103;52.246;8.052;2023-02-22T00:17:44;100432.03;;;8.19;91.68
31483;BME280;18103;52.246;8.052;2023-02-22T00:20:11;100434.88;;;8.29;91.51
31483;BME280;18103;52.246;8.052;2023-02-22T00:22:43;100441.41;;;8.36;90.78
31483;BME280;18103;52.246;8.052;2023-02-22T00:25:14;100436.56;;;8.43;90.52
31483;BME280;18103;52.246;8.052;2023-02-22T00:27:41;100437.38;;;8.45;90.37
31483;BME280;18103;52.246;8.052;2023-02-22T00:30:07;100431.13;;;8.46;90.73
31483;BME280;18103;52.246;8.052;2023-02-22T00:32:34;100438.91;;;8.48;90.27
31483;BME280;18103;52.246;8.052;2023-02-22T00:34:59;100429.22;;;8.35;90.70
31483;BME280;18103;52.246;8.052;2023-02-22T00:37:24;100425.13;;;8.31;90.88
31483;BME280;18103;52.246;8.052;2023-02-22T00:39:50;100427.56;;;8.47;90.39
31483;BME280;18103;52.246;8.052;2023-02-22T00:42:17;100423.06;;;8.49;90.02
31483;BME280;18103;52.246;8.052;2023-02-22T00:44:42;100433.94;;;8.43;90.39
31483;BME280;18103;52.246;8.052;2023-02-22T00:47:09;100427.75;;;8.44;90.69
31483;BME280;18103;52.246;8.052;2023-02-22T00:49:35;100424.72;;;8.50;90.14
31483;BME280;18103;52.246;8.052;2023-02-22T00:52:02;100423.13;;;8.48;90.25
31483;BME280;18103;52.246;8.052;2023-02-22T00:54:29;100427.06;;;8.55;89.84
31483;BME280;18103;52.246;8.052;2023-02-22T00:56:54;100420.72;;;8.57;89.83
31483;BME280;18103;52.246;8.052;2023-02-22T00:59:20;100427.38;;;8.63;89.86
31483;BME280;18103;52.246;8.052;2023-02-22T01:01:45;100407.34;;;8.48;89.98
31483;BME280;18103;52.246;8.052;2023-02-22T01:04:10;100411.44;;;8.52;90.13
31483;BME280;18103;52.246;8.052;2023-02-22T01:06:36;100400.94;;;8.52;90.08
31483;BME280;18103;52.246;8.052;2023-02-22T01:09:02;100401.25;;;8.60;89.76
31483;BME280;18103;52.246;8.052;2023-02-22T01:11:28;100401.69;;;8.54;90.08
31483;BME280;18103;52.246;8.052;2023-02-22T01:13:54;100397.44;;;8.64;89.74
31483;BME280;18103;52.246;8.052;2023-02-22T01:16:21;100400.09;;;8.51;89.95
31483;BME280;18103;52.246;8.052;2023-02-22T01:18:46;100394.94;;;8.50;90.37
31483;BME280;18103;52.246;8.052;2023-02-22T01:21:12;100401.44;;;8.44;90.41
31483;BME280;18103;52.246;8.052;2023-02-22T01:23:37;100394.19;;;8.48;90.53
31483;BME280;18103;52.246;8.052;2023-02-22T01:26:04;100392.75;;;8.56;89.94
31483;BME280;18103;52.246;8.052;2023-02-22T01:28:31;100392.84;;;8.55;90.05
31483;BME280;18103;52.246;8.052;2023-02-22T01:30:58;100382.94;;;8.59;89.88
31483;BME280;18103;52.246;8.052;2023-02-22T01:33:23;100382.81;;;8.60;89.83
31483;BME280;18103;52.246;8.052;2023-02-22T01:35:50;100384.50;;;8.61;89.88
31483;BME280;18103;52.246;8.052;2023-02-22T01:38:15;100384.75;;;8.58;89.82
31483;BME280;18103;52.246;8.052;2023-02-22T01:40:42;100388.84;;;8.62;89.59
31483;BME280;18103;52.246;8.052;2023-02-22T01:43:20;100378.31;;;8.62;89.57
31483;BME280;18103;52.246;8.052;2023-02-22T01:45:52;100367.69;;;8.64;89.52
31483;BME280;18103;52.246;8.052;2023-02-22T01:50:53;100359.16;;;8.60;89.72
31483;BME280;18103;52.246;8.052;2023-02-22T01:53:24;100356.75;;;8.57;89.82
31483;BME280;18103;52.246;8.052;2023-02-22T01:55:51;100361.06;;;8.58;89.75
31483;BME280;18103;52.246;8.052;2023-02-22T01:58:20;100356.75;;;8.57;89.54
31483;BME280;18103;52.246;8.052;2023-02-22T02:00:46;100350.34;;;8.48;90.06
31483;BME280;18103;52.246;8.052;2023-02-22T02:03:20;100350.94;;;8.52;89.76
31483;BME280;18103;52.246;8.052;2023-02-22T02:05:47;100344.63;;;8.54;89.97
31483;BME280;18103;52.246;8.052;2023-02-22T02:08:28;100345.50;;;8.55;89.79
31483;BME280;18103;52.246;8.052;2023-02-22T02:10:55;100332.03;;;8.47;90.07
31483;BME280;18103;52.246;8.052;2023-02-22T02:13:23;100332.03;;;8.47;89.99
31483;BME280;18103;52.246;8.052;2023-02-22T02:15:53;100336.53;;;8.57;89.69
31483;BME280;18103;52.246;8.052;2023-02-22T02:18:19;100320.34;;;8.51;89.54
31483;BME280;18103;52.246;8.052;2023-02-22T02:35:02;100319.06;;;8.56;88.67
31483;BME280;18103;52.246;8.052;2023-02-22T02:40:18;100317.50;;;8.41;88.48
31483;BME280;18103;52.246;8.052;2023-02-22T02:45:53;100312.25;;;8.28;88.55
31483;BME280;18103;52.246;8.052;2023-02-22T02:48:25;100307.50;;;8.20;88.26
31483;BME280;18103;52.246;8.052;2023-02-22T02:50:52;100308.22;;;8.22;88.18
31483;BME280;18103;52.246;8.052;2023-02-22T02:53:24;100303.63;;;8.13;88.29
31483;BME280;18103;52.246;8.052;2023-02-22T02:55:50;100304.25;;;8.04;88.33
31483;BME280;18103;52.246;8.052;2023-02-22T02:58:20;100300.13;;;8.13;88.07
31483;BME280;18103;52.246;8.052;2023-02-22T03:00:48;100293.63;;;8.05;88.00
31483;BME280;18103;52.246;8.052;2023-02-22T03:03:44;100298.38;;;8.13;88.08
31483;BME280;18103;52.246;8.052;2023-02-22T03:06:39;100294.78;;;8.01;88.31
31483;BME280;18103;52.246;8.052;2023-02-22T03:09:28;100287.94;;;7.86;89.06
31483;BME280;18103;52.246;8.052;2023-02-22T03:12:20;100286.56;;;7.80;89.71
31483;BME280;18103;52.246;8.052;2023-02-22T03:15:02;100284.06;;;7.79;89.65
31483;BME280;18103;52.246;8.052;2023-02-22T03:20:14;100276.50;;;7.61;90.35
31483;BME280;18103;52.246;8.052;2023-02-22T03:23:13;100274.69;;;7.62;90.31
31483;BME280;18103;52.246;8.052;2023-02-22T03:25:46;100269.97;;;7.67;90.34
31483;BME280;18103;52.246;8.052;2023-02-22T03:28:16;100264.50;;;7.57;91.18
31483;BME280;18103;52.246;8.052;2023-02-22T03:30:53;100261.88;;;7.57;91.15
31483;BME280;18103;52.246;8.052;2023-02-22T03:33:25;100261.66;;;7.60;91.25
31483;BME280;18103;52.246;8.052;2023-02-22T03:36:02;100266.59;;;7.65;91.25
31483;BME280;18103;52.246;8.052;2023-02-22T03:38:31;100252.09;;;7.59;90.96
31483;BME280;18103;52.246;8.052;2023-02-22T03:41:00;100263.69;;;7.82;90.44
31483;BME280;18103;52.246;8.052;2023-02-22T03:43:37;100264.41;;;7.84;89.73
31483;BME280;18103;52.246;8.052;2023-02-22T03:46:05;100258.31;;;7.84;90.19
31483;BME280;18103;52.246;8.052;2023-02-22T03:48:42;100263.25;;;7.88;89.77
31483;BME280;18103;52.246;8.052;2023-02-22T03:51:11;100257.06;;;7.90;89.88
31483;BME280;18103;52.246;8.052;2023-02-22T03:53:40;100259.47;;;7.80;90.30
31483;BME280;18103;52.246;8.052;2023-02-22T03:56:07;100250.88;;;7.91;89.96
31483;BME280;18103;52.246;8.052;2023-02-22T03:58:36;100252.63;;;7.77;90.53
31483;BME280;18103;52.246;8.052;2023-02-22T04:01:02;100260.09;;;7.83;90.44
31483;BME280;18103;52.246;8.052;2023-02-22T04:03:28;100251.78;;;7.64;91.82
31483;BME280;18103;52.246;8.052;2023-02-22T04:05:53;100258.22;;;7.73;91.74
31483;BME280;18103;52.246;8.052;2023-02-22T04:08:19;100245.91;;;7.73;91.96
31483;BME280;18103;52.246;8.052;2023-02-22T04:10:44;100253.06;;;7.71;91.90
31483;BME280;18103;52.246;8.052;2023-02-22T04:13:10;100254.13;;;7.68;92.15
31483;BME280;18103;52.246;8.052;2023-02-22T04:15:36;100254.00;;;7.70;92.51
31483;BME280;18103;52.246;8.052;2023-02-22T04:18:01;100250.34;;;7.73;92.36
31483;BME280;18103;52.246;8.052;2023-02-22T04:20:26;100244.09;;;7.74;92.07
31483;BME280;18103;52.246;8.052;2023-02-22T04:22:53;100247.72;;;7.73;91.93
31483;BME280;18103;52.246;8.052;2023-02-22T04:25:19;100251.16;;;7.73;91.98
31483;BME280;18103;52.246;8.052;2023-02-22T04:27:45;100248.75;;;7.70;92.13
31483;BME280;18103;52.246;8.052;2023-02-22T04:30:11;100244.25;;;7.85;91.50
31483;BME280;18103;52.246;8.052;2023-02-22T04:32:37;100235.81;;;7.80;91.87
31483;BME280;18103;52.246;8.052;2023-02-22T04:35:04;100237.69;;;7.78;91.93
31483;BME280;18103;52.246;8.052;2023-02-22T04:37:30;100236.75;;;7.79;91.72
31483;BME280;18103;52.246;8.052;2023-02-22T04:40:02;100234.56;;;7.73;92.04
31483;BME280;18103;52.246;8.052;2023-02-22T04:42:32;100233.59;;;7.74;92.02
31483;BME280;18103;52.246;8.052;2023-02-22T04:44:57;100232.88;;;7.84;91.29
31483;BME280;18103;52.246;8.052;2023-02-22T04:47:23;100225.81;;;7.72;91.82
31483;BME280;18103;52.246;8.052;2023-02-22T04:49:48;100219.63;;;7.73;92.07
31483;BME280;18103;52.246;8.052;2023-02-22T04:52:14;100228.34;;;7.74;91.91
31483;BME280;18103;52.246;8.052;2023-02-22T04:54:40;100213.66;;;7.84;91.22
31483;BME280;18103;52.246;8.052;2023-02-22T04:57:05;100217.00;;;7.86;91.12
31483;BME280;18103;52.246;8.052;2023-02-22T04:59:30;100222.25;;;7.86;91.08
31483;BME280;18103;52.246;8.052;2023-02-22T05:01:57;100220.25;;;7.90;91.17
31483;BME280;18103;52.246;8.052;2023-02-22T05:04:23;100220.47;;;7.74;91.56
31483;BME280;18103;52.246;8.052;2023-02-22T05:06:48;100217.31;;;7.94;90.97
31483;BME280;18103;52.246;8.052;2023-02-22T05:09:14;100221.84;;;7.79;91.41
31483;BME280;18103;52.246;8.052;2023-02-22T05:11:39;100221.13;;;7.64;92.00
31483;BME280;18103;52.246;8.052;2023-02-22T05:14:04;100213.44;;;7.61;92.35
31483;BME280;18103;52.246;8.052;2023-02-22T05:16:30;100217.22;;;7.83;91.37
31483;BME280;18103;52.246;8.052;2023-02-22T05:18:55;100218.91;;;7.71;91.24
31483;BME280;18103;52.246;8.052;2023-02-22T05:21:21;100217.94;;;7.72;91.45
31483;BME280;18103;52.246;8.052;2023-02-22T05:23:46;100211.53;;;7.63;91.63
31483;BME280;18103;52.246;8.052;2023-02-22T05:26:11;100219.03;;;7.69;91.75
31483;BME280;18103;52.246;8.052;2023-02-22T05:28:37;100220.78;;;7.69;91.50
31483;BME280;18103;52.246;8.052;2023-02-22T05:31:03;100219.50;;;7.87;90.62
31483;BME280;18103;52.246;8.052;2023-02-22T05:33:28;100215.63;;;7.80;90.39
31483;BME280;18103;52.246;8.052;2023-02-22T05:35:53;100211.53;;;7.63;91.26
31483;BME280;18103;52.246;8.052;2023-02-22T05:38:20;100219.63;;;7.73;91.10
31483;BME280;18103;52.246;8.052;2023-02-22T05:40:47;100203.22;;;7.57;91.71
31483;BME280;18103;52.246;8.052;2023-02-22T05:43:12;100209.03;;;7.49;91.97
31483;BME280;18103;52.246;8.052;2023-02-22T05:45:39;100203.34;;;7.55;91.94
31483;BME280;18103;52.246;8.052;2023-02-22T05:48:05;100203.56;;;7.52;91.46
31483;BME280;18103;52.246;8.052;2023-02-22T05:50:30;100202.84;;;7.63;91.05
31483;BME280;18103;52.246;8.052;2023-02-22T05:52:57;100202.19;;;7.46;91.64
31483;BME280;18103;52.246;8.052;2023-02-22T05:55:23;100198.81;;;7.44;91.89
31483;BME280;18103;52.246;8.052;2023-02-22T05:57:49;100192.50;;;7.34;92.24
31483;BME280;18103;52.246;8.052;2023-02-22T06:00:29;100199.88;;;7.42;91.79
31483;BME280;18103;52.246;8.052;2023-02-22T06:05:21;100192.41;;;7.35;92.32
31483;BME280;18103;52.246;8.052;2023-02-22T06:07:46;100194.09;;;7.49;91.47
31483;BME280;18103;52.246;8.052;2023-02-22T06:10:12;100201.53;;;7.43;91.59
31483;BME280;18103;52.246;8.052;2023-02-22T06:12:38;100193.16;;;7.38;91.59
31483;BME280;18103;52.246;8.052;2023-02-22T06:15:04;100197.66;;;7.35;91.38
31483;BME280;18103;52.246;8.052;2023-02-22T06:17:29;100197.63;;;7.10;92.37
31483;BME280;18103;52.246;8.052;2023-02-22T06:19:55;100201.16;;;7.36;91.53
31483;BME280;18103;52.246;8.052;2023-02-22T06:22:20;100200.81;;;7.41;91.25
31483;BME280;18103;52.246;8.052;2023-02-22T06:24:45;100200.28;;;7.23;91.53
31483;BME280;18103;52.246;8.052;2023-02-22T06:27:11;100192.41;;;7.35;91.51
31483;BME280;18103;52.246;8.052;2023-02-22T06:29:37;100197.66;;;7.35;91.35
31483;BME280;18103;52.246;8.052;2023-02-22T06:32:02;100196.06;;;7.33;91.36
31483;BME280;18103;52.246;8.052;2023-02-22T06:34:28;100199.47;;;7.48;90.70
31483;BME280;18103;52.246;8.052;2023-02-22T06:36:53;100198.91;;;7.30;91.00
31483;BME280;18103;52.246;8.052;2023-02-22T06:39:18;100195.34;;;7.31;91.18
31483;BME280;18103;52.246;8.052;2023-02-22T06:41:46;100201.97;;;7.49;90.78
31483;BME280;18103;52.246;8.052;2023-02-22T06:44:12;100197.16;;;7.43;90.93
31483;BME280;18103;52.246;8.052;2023-02-22T06:46:38;100200.81;;;7.53;90.42
31483;BME280;18103;52.246;8.052;2023-02-22T06:49:04;100194.31;;;7.59;90.08
31483;BME280;18103;52.246;8.052;2023-02-22T06:51:34;100197.88;;;7.32;91.09
31483;BME280;18103;52.246;8.052;2023-02-22T06:54:01;100196.00;;;7.47;91.19
31483;BME280;18103;52.246;8.052;2023-02-22T06:56:26;100194.53;;;7.30;91.36
31483;BME280;18103;52.246;8.052;2023-02-22T06:58:51;100194.19;;;7.22;91.99
31483;BME280;18103;52.246;8.052;2023-02-22T07:01:17;100200.59;;;7.44;91.35
31483;BME280;18103;52.246;8.052;2023-02-22T07:03:42;100193.78;;;7.28;91.82
31483;BME280;18103;52.246;8.052;2023-02-22T07:06:08;100190.91;;;7.18;93.02
31483;BME280;18103;52.246;8.052;2023-02-22T07:08:35;100198.47;;;7.23;92.44
31483;BME280;18103;52.246;8.052;2023-02-22T07:11:00;100198.50;;;7.36;92.15
31483;BME280;18103;52.246;8.052;2023-02-22T07:13:25;100194.75;;;7.53;91.73
31483;BME280;18103;52.246;8.052;2023-02-22T07:15:51;100201.66;;;7.28;92.32
31483;BME280;18103;52.246;8.052;2023-02-22T07:18:17;100203.78;;;7.36;92.25
31483;BME280;18103;52.246;8.052;2023-02-22T07:20:42;100199.69;;;7.45;92.23
31483;BME280;18103;52.246;8.052;2023-02-22T07:23:08;100192.50;;;7.47;91.82
31483;BME280;18103;52.246;8.052;2023-02-22T07:25:34;100187.47;;;7.31;92.57
31483;BME280;18103;52.246;8.052;2023-02-22T07:28:00;100197.59;;;7.50;92.15
31483;BME280;18103;52.246;8.052;2023-02-22T07:32:55;100188.41;;;7.43;92.61
31483;BME280;18103;52.246;8.052;2023-02-22T07:37:49;100190.94;;;7.70;91.94
31483;BME280;18103;52.246;8.052;2023-02-22T07:40:15;100184.63;;;7.85;91.38
31483;BME280;18103;52.246;8.052;2023-02-22T07:42:58;100195.78;;;7.89;90.91
31483;BME280;18103;52.246;8.052;2023-02-22T07:45:32;100185.91;;;7.80;91.79
31483;BME280;18103;52.246;8.052;2023-02-22T07:47:59;100181.06;;;7.86;91.40
31483;BME280;18103;52.246;8.052;2023-02-22T07:50:26;100183.25;;;7.93;91.17
31483;BME280;18103;52.246;8.052;2023-02-22T07:52:54;100177.34;;;8.02;90.84
31483;BME280;18103;52.246;8.052;2023-02-22T07:55:24;100179.31;;;8.24;90.37
31483;BME280;18103;52.246;8.052;2023-02-22T07:57:51;100171.50;;;8.35;89.82
31483;BME280;18103;52.246;8.052;2023-02-22T08:00:26;100169.91;;;8.33;90.01
31483;BME280;18103;52.246;8.052;2023-02-22T08:02:53;100168.97;;;8.34;89.88
31483;BME280;18103;52.246;8.052;2023-02-22T08:05:20;100173.88;;;8.38;90.22
31483;BME280;18103;52.246;8.052;2023-02-22T08:07:47;100165.50;;;8.57;89.29
31483;BME280;18103;52.246;8.052;2023-02-22T08:10:15;100167.81;;;8.62;89.40
31483;BME280;18103;52.246;8.052;2023-02-22T08:12:41;100170.75;;;8.70;88.82
31483;BME280;18103;52.246;8.052;2023-02-22T08:15:08;100169.28;;;8.66;88.66
31483;BME280;18103;52.246;8.052;2023-02-22T08:17:39;100169.69;;;8.73;88.23
31483;BME280;18103;52.246;8.052;2023-02-22T08:20:04;100164.19;;;8.76;88.02
31483;BME280;18103;52.246;8.052;2023-02-22T08:22:30;100169.16;;;8.68;88.77
31483;BME280;18103;52.246;8.052;2023-02-22T08:24:55;100168.03;;;8.83;88.62
31483;BME280;18103;52.246;8.052;2023-02-22T08:27:28;100167.00;;;8.97;88.26
31483;BME280;18103;52.246;8.052;2023-02-22T08:29:54;100165.78;;;8.90;88.43
31483;BME280;18103;52.246;8.052;2023-02-22T08:32:20;100165.75;;;8.79;88.46
31483;BME280;18103;52.246;8.052;2023-02-22T08:34:45;100166.59;;;8.79;88.79
31483;BME280;18103;52.246;8.052;2023-02-22T08:37:11;100162.47;;;8.99;88.21
31483;BME280;18103;52.246;8.052;2023-02-22T08:39:37;100159.34;;;8.94;88.27
31483;BME280;18103;52.246;8.052;2023-02-22T08:42:02;100163.34;;;9.11;87.50
31483;BME280;18103;52.246;8.052;2023-02-22T08:44:28;100156.59;;;8.96;87.94
31483;BME280;18103;52.246;8.052;2023-02-22T08:46:53;100157.66;;;8.93;87.62
31483;BME280;18103;52.246;8.052;2023-02-22T08:49:19;100159.63;;;9.02;87.75
31483;BME280;18103;52.246;8.052;2023-02-22T08:51:45;100158.09;;;9.11;87.60
31483;BME280;18103;52.246;8.052;2023-02-22T08:54:10;100150.44;;;9.19;87.03
31483;BME280;18103;52.246;8.052;2023-02-22T08:56:35;100147.63;;;8.98;87.97
31483;BME280;18103;52.246;8.052;2023-02-22T08:59:01;100147.63;;;8.98;87.20
31483;BME280;18103;52.246;8.052;2023-02-22T09:01:26;100149.94;;;9.14;88.29
31483;BME280;18103;52.246;8.052;2023-02-22T09:03:54;100144.66;;;9.03;87.18
31483;BME280;18103;52.246;8.052;2023-02-22T09:06:20;100143.50;;;9.30;86.79
31483;BME280;18103;52.246;8.052;2023-02-22T09:08:46;100135.47;;;9.31;86.82
31483;BME280;18103;52.246;8.052;2023-02-22T09:11:11;100135.00;;;9.26;87.02
31483;BME280;18103;52.246;8.052;2023-02-22T09:13:37;100144.44;;;9.29;86.67
31483;BME280;18103;52.246;8.052;2023-02-22T09:16:02;100150.69;;;9.28;86.15
31483;BME280;18103;52.246;8.052;2023-02-22T09:18:28;100142.81;;;9.28;86.28
31483;BME280;18103;52.246;8.052;2023-02-22T09:20:53;100138.63;;;9.36;86.35
31483;BME280;18103;52.246;8.052;2023-02-22T09:23:20;100139.94;;;9.42;85.97
31483;BME280;18103;52.246;8.052;2023-02-22T09:25:46;100131.41;;;9.27;86.06
31483;BME280;18103;52.246;8.052;2023-02-22T09:28:12;100129.41;;;9.42;85.73
31483;BME280;18103;52.246;8.052;2023-02-22T09:30:37;100138.75;;;9.46;85.86
31483;BME280;18103;52.246;8.052;2023-02-22T09:33:06;100128.91;;;9.48;85.71
31483;BME280;18103;52.246;8.052;2023-02-22T09:35:34;100125.19;;;9.73;85.09
31483;BME280;18103;52.246;8.052;2023-02-22T09:38:01;100119.81;;;9.86;85.03
31483;BME280;18103;52.246;8.052;2023-02-22T09:40:29;100107.47;;;9.75;84.79
31483;BME280;18103;52.246;8.052;2023-02-22T09:46:00;100114.72;;;10.17;84.75
31483;BME280;18103;52.246;8.052;2023-02-22T09:48:33;100097.78;;;10.31;84.21
31483;BME280;18103;52.246;8.052;2023-02-22T09:51:01;100094.03;;;10.34;84.14
31483;BME280;18103;52.246;8.052;2023-02-22T09:53:35;100102.66;;;10.03;83.64
31483;BME280;18103;52.246;8.052;2023-02-22T09:56:07;100107.19;;;10.01;83.02
31483;BME280;18103;52.246;8.052;2023-02-22T09:58:37;100105.25;;;10.15;83.52
31483;BME280;18103;52.246;8.052;2023-02-22T10:01:18;100116.38;;;10.18;83.02
31483;BME280;18103;52.246;8.052;2023-02-22T10:06:31;100098.63;;;10.32;83.60
31483;BME280;18103;52.246;8.052;2023-02-22T10:09:00;100104.00;;;10.41;82.75
31483;BME280;18103;52.246;8.052;2023-02-22T10:11:39;100091.63;;;10.42;83.30
31483;BME280;18103;52.246;8.052;2023-02-22T10:19:54;100091.88;;;10.71;82.20
31483;BME280;18103;52.246;8.052;2023-02-22T10:25:16;100091.59;;;10.86;81.46
31483;BME280;18103;52.246;8.052;2023-02-22T10:28:00;100090.41;;;11.00;81.78
31483;BME280;18103;52.246;8.052;2023-02-22T10:30:32;100088.94;;;11.07;81.78
31483;BME280;18103;52.246;8.052;2023-02-22T10:33:09;100091.56;;;11.07;81.69
31483;BME280;18103;52.246;8.052;2023-02-22T10:35:37;100082.72;;;11.18;81.75
31483;BME280;18103;52.246;8.052;2023-02-22T10:38:17;100093.47;;;11.26;80.66
31483;BME280;18103;52.246;8.052;2023-02-22T10:40:52;100089.22;;;11.35;80.49
31483;BME280;18103;52.246;8.052;2023-02-22T10:43:20;100088.34;;;11.34;80.13
31483;BME280;18103;52.246;8.052;2023-02-22T10:45:46;100094.22;;;11.38;80.94
31483;BME280;18103;52.246;8.052;2023-02-22T10:48:15;100096.38;;;11.54;80.83
31483;BME280;18103;52.246;8.052;2023-02-22T10:50:43;100091.53;;;11.59;80.64
31483;BME280;18103;52.246;8.052;2023-02-22T10:53:10;100085.19;;;11.71;79.94
31483;BME280;18103;52.246;8.052;2023-02-22T10:58:51;100083.03;;;11.55;79.01
31483;BME280;18103;52.246;8.052;2023-02-22T11:01:20;100078.19;;;11.60;77.78
31483;BME280;18103;52.246;8.052;2023-02-22T11:04:07;100070.38;;;11.59;77.01
31483;BME280;18103;52.246;8.052;2023-02-22T11:06:35;100072.38;;;11.76;78.10
31483;BME280;18103;52.246;8.052;2023-02-22T11:09:05;100063.91;;;11.82;77.80
31483;BME280;18103;52.246;8.052;2023-02-22T11:11:32;100073.19;;;11.67;75.23
31483;BME280;18103;52.246;8.052;2023-02-22T11:13:58;100072.50;;;11.75;77.67
31483;BME280;18103;52.246;8.052;2023-02-22T11:16:31;100066.84;;;11.79;76.14
31483;BME280;18103;52.246;8.052;2023-02-22T11:19:30;100075.75;;;11.88;75.86
31483;BME280;18103;52.246;8.052;2023-02-22T11:22:12;100073.59;;;12.03;76.10
31483;BME280;18103;52.246;8.052;2023-02-22T11:24:52;100077.06;;;11.94;74.30
31483;BME280;18103;52.246;8.052;2023-02-22T11:30:25;100058.69;;;12.02;74.98
31483;BME280;18103;52.246;8.052;2023-02-22T11:33:38;100048.50;;;11.97;74.23
31483;BME280;18103;52.246;8.052;2023-02-22T11:38:26;100043.94;;;12.00;74.06
31483;BME280;18103;52.246;8.052;2023-02-22T11:43:29;100034.59;;;12.05;73.67
31483;BME280;18103;52.246;8.052;2023-02-22T11:45:56;100032.53;;;12.19;72.92
31483;BME280;18103;52.246;8.052;2023-02-22T11:48:25;100031.53;;;12.29;72.42
31483;BME280;18103;52.246;8.052;2023-02-22T11:53:30;100023.59;;;12.39;70.98
31483;BME280;18103;52.246;8.052;2023-02-22T11:56:30;100011.88;;;12.61;69.61
31483;BME280;18103;52.246;8.052;2023-02-22T11:59:32;100017.59;;;12.66;71.05
31483;BME280;18103;52.246;8.052;2023-02-22T12:02:31;100010.78;;;12.54;68.77
31483;BME280;18103;52.246;8.052;2023-02-22T12:05:06;100008.81;;;12.56;69.94
31483;BME280;18103;52.246;8.052;2023-02-22T12:10:19;100006.75;;;12.50;66.41
31483;BME280;18103;52.246;8.052;2023-02-22T12:13:00;100006.16;;;12.66;68.15
31483;BME280;18103;52.246;8.052;2023-02-22T12:15:51;100010.31;;;12.78;68.97
31483;BME280;18103;52.246;8.052;2023-02-22T12:18:27;100002.63;;;12.85;69.79
31483;BME280;18103;52.246;8.052;2023-02-22T12:20:58;100000.59;;;12.69;67.44
31483;BME280;18103;52.246;8.052;2023-02-22T12:28:44;99990.78;;;12.79;67.12
31483;BME280;18103;52.246;8.052;2023-02-22T12:31:29;99986.69;;;12.95;65.95
31483;BME280;18103;52.246;8.052;2023-02-22T12:37:04;99977.59;;;13.07;64.23
31483;BME280;18103;52.246;8.052;2023-02-22T12:42:01;99979.94;;;13.10;64.07
31483;BME280;18103;52.246;8.052;2023-02-22T12:44:34;99979.75;;;13.22;64.80
31483;BME280;18103;52.246;8.052;2023-02-22T12:47:04;99981.19;;;13.72;67.08
31483;BME280;18103;52.246;8.052;2023-02-22T12:52:44;99976.50;;;13.65;62.97
31483;BME280;18103;52.246;8.052;2023-02-22T12:55:17;99970.25;;;13.57;62.73
31483;BME280;18103;52.246;8.052;2023-02-22T12:58:16;99977.56;;;13.91;62.35
31483;BME280;18103;52.246;8.052;2023-02-22T13:01:18;99967.22;;;14.06;65.01
31483;BME280;18103;52.246;8.052;2023-02-22T13:03:45;99976.88;;;14.07;61.15
31483;BME280;18103;52.246;8.052;2023-02-22T13:11:42;99971.09;;;14.74;60.69
31483;BME280;18103;52.246;8.052;2023-02-22T13:20:05;99964.75;;;14.48;58.56
31483;BME280;18103;52.246;8.052;2023-02-22T13:30:36;99957.31;;;14.26;57.76
31483;BME280;18103;52.246;8.052;2023-02-22T13:33:07;99955.00;;;14.31;57.68
31483;BME280;18103;52.246;8.052;2023-02-22T13:35:41;99954.50;;;14.27;57.27
31483;BME280;18103;52.246;8.052;2023-02-22T13:49:34;99947.22;;;13.93;58.86
31483;BME280;18103;52.246;8.052;2023-02-22T13:52:30;99950.03;;;13.92;60.99
31483;BME280;18103;52.246;8.052;2023-02-22T13:55:01;99950.19;;;14.08;59.80
31483;BME280;18103;52.246;8.052;2023-02-22T14:02:55;99943.91;;;13.91;59.87
31483;BME280;18103;52.246;8.052;2023-02-22T14:05:47;99948.75;;;13.96;60.91
31483;BME280;18103;52.246;8.052;2023-02-22T14:13:08;99944.81;;;13.82;60.43
31483;BME280;18103;52.246;8.052;2023-02-22T14:15:34;99946.47;;;14.01;60.33
31483;BME280;18103;52.246;8.052;2023-02-22T14:18:04;99938.44;;;13.93;60.21
31483;BME280;18103;52.246;8.052;2023-02-22T14:20:36;99937.38;;;13.85;60.36
31483;BME280;18103;52.246;8.052;2023-02-22T14:25:49;99931.91;;;13.69;60.87
31483;BME280;18103;52.246;8.052;2023-02-22T14:28:36;99937.44;;;13.58;60.25
31483;BME280;18103;52.246;8.052;2023-02-22T14:31:11;99934.78;;;13.58;60.48
31483;BME280;18103;52.246;8.052;2023-02-22T14:33:51;99929.66;;;13.56;59.95
31483;BME280;18103;52.246;8.052;2023-02-22T14:36:57;99933.91;;;13.67;61.47
31483;BME280;18103;52.246;8.052;2023-02-22T14:42:47;99928.81;;;13.56;60.91
31483;BME280;18103;52.246;8.052;2023-02-22T14:45:23;99923.13;;;13.50;60.20
31483;BME280;18103;52.246;8.052;2023-02-22T14:50:46;99927.56;;;13.50;61.25
31483;BME280;18103;52.246;8.052;2023-02-22T14:56:38;99932.22;;;13.48;62.52
31483;BME280;18103;52.246;8.052;2023-02-22T14:59:20;99925.47;;;13.54;62.00
31483;BME280;18103;52.246;8.052;2023-02-22T15:01:48;99926.69;;;13.59;62.34
31483;BME280;18103;52.246;8.052;2023-02-22T15:04:28;99921.22;;;13.61;62.97
31483;BME280;18103;52.246;8.052;2023-02-22T15:09:32;99927.59;;;13.68;63.20
31483;BME280;18103;52.246;8.052;2023-02-22T15:14:27;99921.78;;;13.64;61.47
31483;BME280;18103;52.246;8.052;2023-02-22T15:16:59;99913.81;;;13.64;63.21
31483;BME280;18103;52.246;8.052;2023-02-22T15:19:37;99912.53;;;13.68;64.25
31483;BME280;18103;52.246;8.052;2023-02-22T15:22:04;99914.31;;;13.68;62.76
31483;BME280;18103;52.246;8.052;2023-02-22T15:24:35;99918.72;;;13.59;63.18
31483;BME280;18103;52.246;8.052;2023-02-22T15:27:11;99911.09;;;13.56;62.56